Wetterdaten: Woche 22.02.16 - 28.02.16 (KW8)
Datum Zeit Auen-Temp. Temp gefhlt Luftfeuchte Luftdruck Regen Wind Richtung Sonnenschein Taupunkt Windben
22.02.2016 00:00 9,3 C 9,0 C 44 % 1015,5 hPa 0,0 mm 10,0 km/h (2 Bft) W-SW 0,00 h -2,2 C 12,2 km/h (2 Bft)
22.02.2016 01:00 9,3 C 9,3 C 40 % 1014,8 hPa 0,0 mm 10,7 km/h (2 Bft) SW 0,00 h -3,5 C 12,4 km/h (3 Bft)
22.02.2016 02:00 7,3 C 7,9 C 44 % 1014,2 hPa 0,0 mm 8,9 km/h (2 Bft) SW 0,00 h -4,0 C 10,7 km/h (2 Bft)
22.02.2016 03:00 9,3 C 9,2 C 41 % 1013,6 hPa 0,0 mm 8,5 km/h (2 Bft) W-SW 0,00 h -3,2 C 10,6 km/h (2 Bft)
22.02.2016 04:00 9,3 C 9,2 C 42 % 1013,1 hPa 0,0 mm 9,0 km/h (2 Bft) W-SW 0,00 h -2,9 C 11,6 km/h (2 Bft)
22.02.2016 05:00 10,0 C 9,7 C 43 % 1013,7 hPa 0,0 mm 12,0 km/h (2 Bft) W-SW 0,00 h -2,0 C 15,0 km/h (3 Bft)
22.02.2016 06:00 10,7 C 10,5 C 43 % 1013,9 hPa 0,0 mm 12,0 km/h (2 Bft) W-SW 0,00 h -1,2 C 16,3 km/h (3 Bft)
22.02.2016 07:00 11,4 C 11,1 C 45 % 1014,1 hPa 0,0 mm 13,9 km/h (3 Bft) W 0,00 h -0,2 C 16,7 km/h (3 Bft)
22.02.2016 08:00 12,0 C 11,7 C 47 % 1014,0 hPa 0,0 mm 14,7 km/h (3 Bft) W-SW 0,00 h 1,0 C 17,4 km/h (3 Bft)
22.02.2016 09:00 13,1 C 14,2 C 41 % 1014,2 hPa 0,0 mm 15,0 km/h (3 Bft) W-SW 0,07 h 0,1 C 18,2 km/h (3 Bft)
22.02.2016 10:00 14,2 C 17,7 C 38 % 1014,4 hPa 0,0 mm 18,6 km/h (3 Bft) W 0,82 h -0,0 C 24,5 km/h (4 Bft)
22.02.2016 11:00 15,4 C 18,3 C 37 % 1015,8 hPa 0,0 mm 18,2 km/h (3 Bft) W 0,65 h 0,9 C 23,0 km/h (4 Bft)
22.02.2016 12:00 16,0 C 17,7 C 37 % 1016,0 hPa 0,0 mm 17,5 km/h (3 Bft) W-SW 0,18 h 1,2 C 21,4 km/h (4 Bft)
22.02.2016 13:00 16,7 C 19,3 C 35 % 1015,1 hPa 0,0 mm 18,1 km/h (3 Bft) W 0,08 h 1,3 C 26,0 km/h (4 Bft)
22.02.2016 14:00 16,3 C 18,5 C 33 % 1013,5 hPa 0,0 mm 18,6 km/h (3 Bft) W 0,00 h 0,1 C 22,7 km/h (4 Bft)
22.02.2016 15:00 14,9 C 15,5 C 34 % 1012,5 hPa 0,0 mm 13,2 km/h (3 Bft) W-SW 0,00 h -1,0 C 14,7 km/h (3 Bft)
22.02.2016 16:00 14,0 C 14,3 C 36 % 1011,8 hPa 0,0 mm 10,8 km/h (2 Bft) W-SW 0,00 h -0,9 C 13,8 km/h (3 Bft)
22.02.2016 17:00 12,5 C 12,6 C 39 % 1011,1 hPa 0,0 mm 9,9 km/h (2 Bft) W 0,00 h -1,1 C 11,6 km/h (2 Bft)
22.02.2016 18:00 11,4 C 11,4 C 41 % 1011,0 hPa 0,0 mm 9,1 km/h (2 Bft) W 0,00 h -1,3 C 10,2 km/h (2 Bft)
22.02.2016 19:00 11,0 C 11,0 C 44 % 1011,2 hPa 0,0 mm 6,0 km/h (2 Bft) SW 0,00 h -0,9 C 6,9 km/h (2 Bft)
22.02.2016 20:00 10,9 C 11,0 C 46 % 1011,4 hPa 0,0 mm 8,3 km/h (2 Bft) W 0,00 h -0,4 C 11,7 km/h (2 Bft)
22.02.2016 21:00 10,4 C 10,2 C 53 % 1011,7 hPa 0,0 mm 14,6 km/h (3 Bft) NW 0,00 h 1,3 C 20,0 km/h (4 Bft)
22.02.2016 22:00 9,7 C 9,2 C 61 % 1011,7 hPa 0,0 mm 17,5 km/h (3 Bft) W 0,00 h 2,4 C 24,1 km/h (4 Bft)
22.02.2016 23:00 9,1 C 8,7 C 65 % 1011,9 hPa 0,0 mm 17,9 km/h (3 Bft) W 0,00 h 2,9 C 26,2 km/h (4 Bft)
23.02.2016 00:00 7,8 C 7,1 C 72 % 1011,6 hPa 0,0 mm 13,3 km/h (3 Bft) W 0,00 h 3,0 C 15,4 km/h (3 Bft)
23.02.2016 01:00 7,6 C 7,0 C 70 % 1011,1 hPa 0,0 mm 12,1 km/h (2 Bft) W 0,00 h 2,4 C 16,8 km/h (3 Bft)
23.02.2016 02:00 7,7 C 7,3 C 66 % 1010,9 hPa 0,0 mm 11,8 km/h (2 Bft) W 0,00 h 1,8 C 15,6 km/h (3 Bft)
23.02.2016 03:00 7,5 C 7,3 C 67 % 1010,8 hPa 0,0 mm 9,6 km/h (2 Bft) W-SW 0,00 h 1,8 C 12,7 km/h (3 Bft)
23.02.2016 04:00 7,2 C 6,6 C 68 % 1010,6 hPa 0,0 mm 17,0 km/h (3 Bft) W 0,00 h 1,8 C 22,6 km/h (4 Bft)
23.02.2016 05:00 6,5 C 6,0 C 70 % 1010,5 hPa 0,0 mm 13,9 km/h (3 Bft) W 0,00 h 1,5 C 17,7 km/h (3 Bft)
23.02.2016 06:00 6,4 C 6,0 C 68 % 1010,1 hPa 0,0 mm 10,3 km/h (2 Bft) W 0,00 h 0,9 C 13,4 km/h (3 Bft)
23.02.2016 07:00 6,1 C 5,8 C 64 % 1009,8 hPa 0,0 mm 9,4 km/h (2 Bft) W-SW 0,00 h -0,2 C 11,5 km/h (2 Bft)
23.02.2016 08:00 6,9 C 7,3 C 62 % 1009,9 hPa 0,0 mm 5,9 km/h (2 Bft) W-SW 0,00 h 0,2 C 8,1 km/h (2 Bft)
23.02.2016 09:00 8,0 C 8,2 C 59 % 1009,8 hPa 0,0 mm 10,1 km/h (2 Bft) W 0,00 h 0,5 C 14,0 km/h (3 Bft)
23.02.2016 10:00 8,6 C 9,1 C 59 % 1010,0 hPa 0,0 mm 12,7 km/h (3 Bft) NW 0,00 h 1,0 C 17,5 km/h (3 Bft)
23.02.2016 11:00 8,1 C 8,4 C 62 % 1010,1 hPa 0,0 mm 13,5 km/h (3 Bft) W 0,00 h 1,1 C 15,7 km/h (3 Bft)
23.02.2016 12:00 8,7 C 9,3 C 62 % 1009,7 hPa 0,0 mm 14,0 km/h (3 Bft) W 0,00 h 1,7 C 20,9 km/h (4 Bft)
23.02.2016 13:00 8,6 C 8,5 C 60 % 1009,0 hPa 0,0 mm 22,7 km/h (4 Bft) W 0,00 h 1,2 C 33,4 km/h (5 Bft)
23.02.2016 14:00 9,1 C 9,6 C 59 % 1008,6 hPa 0,0 mm 20,8 km/h (4 Bft) W 0,00 h 1,4 C 25,3 km/h (4 Bft)
23.02.2016 15:00 7,8 C 7,4 C 64 % 1008,7 hPa 0,0 mm 17,7 km/h (3 Bft) W 0,00 h 1,4 C 21,0 km/h (4 Bft)
23.02.2016 16:00 4,7 C 3,9 C 76 % 1009,4 hPa 1,4 mm 15,2 km/h (3 Bft) W 0,00 h 0,9 C 17,5 km/h (3 Bft)
23.02.2016 17:00 0,6 C 0,1 C 85 % 1012,0 hPa 0,0 mm 6,8 km/h (2 Bft) W 0,00 h -1,6 C 9,3 km/h (2 Bft)
23.02.2016 18:00 0,4 C -0,2 C 88 % 1013,2 hPa 0,0 mm 7,7 km/h (2 Bft) W-SW 0,00 h -1,3 C 10,2 km/h (2 Bft)
23.02.2016 19:00 0,1 C -0,4 C 87 % 1014,6 hPa 0,0 mm 7,4 km/h (2 Bft) W 0,00 h -1,7 C 9,4 km/h (2 Bft)
23.02.2016 20:00 -0,3 C -0,6 C 88 % 1015,7 hPa 0,0 mm 3,2 km/h (1 Bft) W 0,00 h -2,0 C 3,2 km/h (1 Bft)
23.02.2016 21:00 -0,6 C -0,8 C 85 % 1016,2 hPa 0,0 mm 0,0 km/h (0 Bft) N 0,00 h -2,9 C 0,0 km/h (0 Bft)
23.02.2016 22:00 -1,3 C -1,5 C 87 % 1016,8 hPa 0,0 mm 0,0 km/h (0 Bft) N 0,00 h -3,1 C 0,0 km/h (0 Bft)
23.02.2016 23:00 -0,8 C -1,0 C 87 % 1016,9 hPa 0,0 mm 0,0 km/h (0 Bft) N 0,00 h -2,6 C 0,0 km/h (0 Bft)
24.02.2016 00:00 -1,2 C -1,5 C 88 % 1017,0 hPa 0,0 mm 0,0 km/h (0 Bft) N 0,00 h -3,0 C 0,0 km/h (0 Bft)
24.02.2016 01:00 -1,8 C -2,2 C 88 % 1016,9 hPa 0,0 mm 0,0 km/h (0 Bft) N 0,00 h -3,6 C 0,0 km/h (0 Bft)
24.02.2016 02:00 -1,7 C -2,0 C 87 % 1016,8 hPa 0,0 mm 0,0 km/h (0 Bft) N 0,00 h -3,5 C 0,0 km/h (0 Bft)
24.02.2016 03:00 -2,5 C -2,8 C 87 % 1016,7 hPa 0,0 mm 0,0 km/h (0 Bft) N 0,00 h -4,3 C 0,0 km/h (0 Bft)
24.02.2016 04:00 -2,4 C -2,7 C 87 % 1016,6 hPa 0,0 mm 0,0 km/h (0 Bft) N 0,00 h -4,3 C 0,0 km/h (0 Bft)
24.02.2016 05:00 -2,6 C -2,9 C 86 % 1016,7 hPa 0,0 mm 0,0 km/h (0 Bft) N 0,00 h -4,6 C 0,0 km/h (0 Bft)
24.02.2016 06:00 -1,9 C -2,2 C 87 % 1016,8 hPa 0,0 mm 0,0 km/h (0 Bft) N 0,00 h -3,8 C 0,0 km/h (0 Bft)
24.02.2016 07:00 -1,5 C -1,8 C 84 % 1016,9 hPa 0,0 mm 0,0 km/h (0 Bft) N 0,00 h -3,8 C 0,0 km/h (0 Bft)
24.02.2016 08:00 -1,0 C -0,6 C 81 % 1017,4 hPa 0,0 mm 0,0 km/h (0 Bft) N 0,00 h -3,8 C 0,0 km/h (0 Bft)
24.02.2016 09:00 0,4 C 3,1 C 80 % 1017,4 hPa 0,0 mm 0,0 km/h (0 Bft) N 0,12 h -2,7 C 0,0 km/h (0 Bft)
24.02.2016 10:00 1,0 C 14,0 C 77 % 1017,8 hPa 0,7 mm 0,0 km/h (0 Bft) N 1,00 h -2,5 C 0,0 km/h (0 Bft)
24.02.2016 11:00 2,8 C 14,4 C 72 % 1019,0 hPa 1,4 mm 0,2 km/h (0 Bft) N 1,00 h -1,8 C 0,6 km/h (0 Bft)
24.02.2016 12:00 3,8 C 11,3 C 64 % 1019,0 hPa 1,4 mm 1,6 km/h (1 Bft) O-NO 1,00 h -2,4 C 3,1 km/h (1 Bft)
24.02.2016 13:00 3,3 C 8,0 C 65 % 1017,3 hPa 1,4 mm 4,3 km/h (1 Bft) N-NW 0,57 h -2,7 C 5,8 km/h (2 Bft)
24.02.2016 14:00 3,7 C 9,5 C 62 % 1015,6 hPa 0,7 mm 4,1 km/h (1 Bft) N-NW 1,00 h -2,9 C 4,9 km/h (1 Bft)
24.02.2016 15:00 2,8 C 5,7 C 65 % 1014,6 hPa 0,0 mm 1,9 km/h (1 Bft) O-NO 0,32 h -3,1 C 2,5 km/h (1 Bft)
24.02.2016 16:00 1,9 C 3,5 C 68 % 1013,6 hPa 0,0 mm 0,4 km/h (0 Bft) N 0,00 h -3,3 C 0,0 km/h (0 Bft)
24.02.2016 17:00 0,8 C 0,7 C 74 % 1012,5 hPa 0,0 mm 0,0 km/h (0 Bft) N 0,00 h -3,3 C 0,0 km/h (0 Bft)
24.02.2016 18:00 0,3 C 0,0 C 78 % 1012,2 hPa 0,0 mm 0,0 km/h (0 Bft) N 0,00 h -3,1 C 0,0 km/h (0 Bft)
24.02.2016 19:00 0,1 C -0,2 C 79 % 1012,0 hPa 0,0 mm 0,0 km/h (0 Bft) N 0,00 h -3,1 C 0,0 km/h (0 Bft)
24.02.2016 20:00 -0,0 C -0,2 C 80 % 1011,7 hPa 0,0 mm 0,3 km/h (0 Bft) S-SO 0,00 h -3,0 C 0,4 km/h (0 Bft)
24.02.2016 21:00 -0,1 C -0,4 C 84 % 1011,0 hPa 0,0 mm 0,0 km/h (0 Bft) N 0,00 h -2,5 C 0,0 km/h (0 Bft)
24.02.2016 22:00 -0,4 C -0,6 C 85 % 1010,4 hPa 0,0 mm 0,0 km/h (0 Bft) N 0,00 h -2,7 C 0,0 km/h (0 Bft)
24.02.2016 23:00 -0,6 C -0,8 C 85 % 1009,7 hPa 0,0 mm 0,0 km/h (0 Bft) N 0,00 h -2,8 C 0,0 km/h (0 Bft)
25.02.2016 00:00 -0,6 C -0,8 C 87 % 1009,3 hPa 0,0 mm 0,0 km/h (0 Bft) N 0,00 h -2,5 C 0,0 km/h (0 Bft)
25.02.2016 01:00 -0,6 C -0,8 C 87 % 1008,8 hPa 0,0 mm 0,0 km/h (0 Bft) N 0,00 h -2,5 C 0,0 km/h (0 Bft)
25.02.2016 02:00 -0,6 C -0,8 C 89 % 1008,0 hPa 0,0 mm 0,0 km/h (0 Bft) N 0,00 h -2,2 C 0,0 km/h (0 Bft)
25.02.2016 03:00 -0,7 C -0,9 C 89 % 1007,3 hPa 0,0 mm 0,0 km/h (0 Bft) N 0,00 h -2,3 C 0,0 km/h (0 Bft)
25.02.2016 04:00 -0,9 C -1,0 C 86 % 1006,8 hPa 0,0 mm 0,0 km/h (0 Bft) N 0,00 h -2,9 C 0,0 km/h (0 Bft)
25.02.2016 05:00 -0,8 C -1,0 C 87 % 1006,9 hPa 0,0 mm 0,0 km/h (0 Bft) N 0,00 h -2,7 C 0,0 km/h (0 Bft)
25.02.2016 06:00 -0,6 C -0,8 C 89 % 1006,6 hPa 0,0 mm 0,0 km/h (0 Bft) N 0,00 h -2,2 C 0,0 km/h (0 Bft)
25.02.2016 07:00 -0,6 C -0,6 C 87 % 1006,9 hPa 0,0 mm 0,0 km/h (0 Bft) N 0,00 h -2,4 C 0,0 km/h (0 Bft)
25.02.2016 08:00 -0,1 C 0,2 C 86 % 1007,5 hPa 0,0 mm 0,0 km/h (0 Bft) N 0,00 h -2,1 C 0,0 km/h (0 Bft)
25.02.2016 09:00 0,5 C 1,2 C 86 % 1007,9 hPa 0,0 mm 0,0 km/h (0 Bft) N 0,00 h -1,5 C 0,0 km/h (0 Bft)
25.02.2016 10:00 1,0 C 2,0 C 85 % 1008,4 hPa 0,0 mm 0,0 km/h (0 Bft) N 0,00 h -1,2 C 0,0 km/h (0 Bft)
25.02.2016 11:00 1,0 C 2,8 C 84 % 1008,9 hPa 0,0 mm 0,3 km/h (0 Bft) NO 0,00 h -1,4 C 1,0 km/h (0 Bft)
25.02.2016 12:00 0,7 C 2,8 C 83 % 1009,5 hPa 0,0 mm 3,0 km/h (1 Bft) N-NW 0,00 h -1,9 C 3,2 km/h (1 Bft)
25.02.2016 13:00 1,1 C 3,3 C 82 % 1009,8 hPa 0,0 mm 2,7 km/h (1 Bft) NW 0,00 h -1,6 C 4,1 km/h (1 Bft)
25.02.2016 14:00 1,1 C 2,7 C 80 % 1010,1 hPa 0,7 mm 2,3 km/h (1 Bft) NW 0,00 h -1,9 C 2,3 km/h (1 Bft)
25.02.2016 15:00 -0,0 C 0,8 C 81 % 1010,6 hPa 0,7 mm 0,9 km/h (0 Bft) N 0,00 h -2,9 C 1,1 km/h (1 Bft)
25.02.2016 16:00 -0,2 C 0,4 C 82 % 1010,9 hPa 0,7 mm 0,0 km/h (0 Bft) N 0,00 h -2,9 C 0,0 km/h (0 Bft)
25.02.2016 17:00 -0,8 C -0,7 C 82 % 1011,1 hPa 0,0 mm 0,0 km/h (0 Bft) N 0,00 h -3,4 C 0,0 km/h (0 Bft)
25.02.2016 18:00 -1,2 C -1,4 C 83 % 1011,8 hPa 0,0 mm 0,0 km/h (0 Bft) N 0,00 h -3,7 C 0,0 km/h (0 Bft)
25.02.2016 19:00 -1,6 C -1,9 C 83 % 1012,0 hPa 0,0 mm 0,0 km/h (0 Bft) N 0,00 h -4,1 C 0,0 km/h (0 Bft)
25.02.2016 20:00 -1,8 C -2,1 C 85 % 1012,3 hPa 0,0 mm 0,0 km/h (0 Bft) N 0,00 h -4,0 C 0,0 km/h (0 Bft)
25.02.2016 21:00 -2,1 C -2,4 C 86 % 1012,5 hPa 0,7 mm 0,0 km/h (0 Bft) N 0,00 h -4,1 C 0,0 km/h (0 Bft)
25.02.2016 22:00 -2,0 C -2,3 C 87 % 1012,8 hPa 0,0 mm 0,0 km/h (0 Bft) N 0,00 h -3,9 C 0,0 km/h (0 Bft)
25.02.2016 23:00 -2,0 C -2,2 C 87 % 1012,9 hPa 0,0 mm 0,0 km/h (0 Bft) N 0,00 h -3,9 C 0,0 km/h (0 Bft)
26.02.2016 00:00 -2,0 C -2,2 C 88 % 1012,8 hPa 0,0 mm 0,0 km/h (0 Bft) N 0,00 h -3,8 C 0,0 km/h (0 Bft)
26.02.2016 01:00 -2,3 C -2,5 C 88 % 1012,9 hPa 0,0 mm 0,0 km/h (0 Bft) N 0,00 h -4,1 C 0,0 km/h (0 Bft)
26.02.2016 02:00 -2,6 C -2,8 C 88 % 1012,7 hPa 0,0 mm 0,0 km/h (0 Bft) N 0,00 h -4,3 C 0,0 km/h (0 Bft)
26.02.2016 03:00 -3,0 C -3,3 C 89 % 1012,2 hPa 0,0 mm 0,0 km/h (0 Bft) N 0,00 h -4,6 C 0,0 km/h (0 Bft)
26.02.2016 04:00 -3,3 C -3,6 C 89 % 1012,0 hPa 0,0 mm 0,0 km/h (0 Bft) N 0,00 h -4,9 C 0,0 km/h (0 Bft)
26.02.2016 05:00 -3,8 C -4,1 C 89 % 1012,0 hPa 0,0 mm 0,0 km/h (0 Bft) N 0,00 h -5,3 C 0,0 km/h (0 Bft)
26.02.2016 06:00 -4,7 C -5,0 C 89 % 1011,8 hPa 0,0 mm 0,0 km/h (0 Bft) N 0,00 h -6,3 C 0,0 km/h (0 Bft)
26.02.2016 07:00 -5,0 C -5,1 C 88 % 1011,4 hPa 0,0 mm 0,0 km/h (0 Bft) N 0,00 h -6,6 C 0,0 km/h (0 Bft)
26.02.2016 08:00 -5,2 C -4,9 C 84 % 1011,3 hPa 0,0 mm 0,0 km/h (0 Bft) N 0,00 h -7,4 C 0,0 km/h (0 Bft)
26.02.2016 09:00 -3,4 C -1,1 C 85 % 1011,1 hPa 0,0 mm 0,0 km/h (0 Bft) N 0,15 h -5,5 C 0,0 km/h (0 Bft)
26.02.2016 10:00 -1,5 C 5,2 C 85 % 1011,6 hPa 0,0 mm 0,0 km/h (0 Bft) N 1,00 h -3,7 C 0,0 km/h (0 Bft)
26.02.2016 11:00 0,6 C 6,3 C 81 % 1012,9 hPa 0,7 mm 0,0 km/h (0 Bft) N 0,58 h -2,3 C 0,0 km/h (0 Bft)
26.02.2016 12:00 1,4 C 5,5 C 75 % 1012,7 hPa 1,4 mm 0,0 km/h (0 Bft) N 0,10 h -2,5 C 0,0 km/h (0 Bft)
26.02.2016 13:00 1,5 C 5,9 C 70 % 1011,7 hPa 2,1 mm 0,0 km/h (0 Bft) N 0,00 h -3,4 C 0,0 km/h (0 Bft)
26.02.2016 14:00 0,7 C 2,9 C 71 % 1010,0 hPa 0,7 mm 0,0 km/h (0 Bft) N 0,03 h -4,0 C 0,0 km/h (0 Bft)
26.02.2016 15:00 0,4 C 1,7 C 74 % 1009,5 hPa 0,7 mm 0,0 km/h (0 Bft) N 0,00 h -3,6 C 0,0 km/h (0 Bft)
26.02.2016 16:00 0,0 C 0,4 C 77 % 1008,0 hPa 0,0 mm 0,0 km/h (0 Bft) N 0,00 h -3,5 C 0,0 km/h (0 Bft)
26.02.2016 17:00 -0,2 C -0,2 C 78 % 1007,2 hPa 0,0 mm 0,7 km/h (0 Bft) NO 0,00 h -3,5 C 1,4 km/h (1 Bft)
26.02.2016 18:00 -1,3 C -1,6 C 79 % 1006,7 hPa 0,0 mm 1,0 km/h (0 Bft) N 0,00 h -4,4 C 1,9 km/h (1 Bft)
26.02.2016 19:00 -2,7 C -3,1 C 82 % 1006,5 hPa 0,0 mm 1,5 km/h (1 Bft) O-SO 0,00 h -5,3 C 2,9 km/h (1 Bft)
26.02.2016 20:00 -3,7 C -4,1 C 85 % 1005,9 hPa 0,0 mm 0,2 km/h (0 Bft) O-SO 0,00 h -5,8 C 0,1 km/h (0 Bft)
26.02.2016 21:00 -4,3 C -4,8 C 87 % 1005,6 hPa 0,0 mm 0,0 km/h (0 Bft) N 0,00 h -6,2 C 0,0 km/h (0 Bft)
26.02.2016 22:00 -4,8 C -5,4 C 88 % 1005,6 hPa 0,0 mm 0,0 km/h (0 Bft) N 0,00 h -6,5 C 0,0 km/h (0 Bft)
26.02.2016 23:00 -5,9 C -6,3 C 88 % 1005,4 hPa 0,0 mm 0,0 km/h (0 Bft) N 0,00 h -7,6 C 0,0 km/h (0 Bft)
27.02.2016 00:00 -6,9 C -7,3 C 87 % 1004,9 hPa 0,0 mm 0,0 km/h (0 Bft) N 0,00 h -8,7 C 0,0 km/h (0 Bft)
27.02.2016 01:00 -7,9 C -8,2 C 88 % 1004,4 hPa 0,0 mm 0,0 km/h (0 Bft) N 0,00 h -9,5 C 0,1 km/h (0 Bft)
27.02.2016 02:00 -8,3 C -8,7 C 87 % 1004,0 hPa 0,0 mm 0,0 km/h (0 Bft) N 0,00 h -10,1 C 0,0 km/h (0 Bft)
27.02.2016 03:00 -7,9 C -8,2 C 87 % 1003,6 hPa 0,0 mm 0,1 km/h (0 Bft) N 0,00 h -9,7 C 0,3 km/h (0 Bft)
27.02.2016 04:00 -7,3 C -7,5 C 87 % 1003,2 hPa 0,0 mm 0,1 km/h (0 Bft) N 0,00 h -9,1 C 0,2 km/h (0 Bft)
27.02.2016 05:00 -6,9 C -7,0 C 86 % 1002,9 hPa 0,0 mm 0,2 km/h (0 Bft) N 0,00 h -8,8 C 0,4 km/h (0 Bft)
27.02.2016 06:00 -6,1 C -6,2 C 86 % 1003,0 hPa 0,0 mm 0,0 km/h (0 Bft) N 0,00 h -8,1 C 0,0 km/h (0 Bft)
27.02.2016 07:00 -5,2 C -5,0 C 86 % 1003,2 hPa 0,0 mm 0,0 km/h (0 Bft) N 0,00 h -7,2 C 0,0 km/h (0 Bft)
27.02.2016 08:00 -4,5 C -3,4 C 84 % 1003,6 hPa 0,0 mm 0,1 km/h (0 Bft) N 0,00 h -6,8 C 0,1 km/h (0 Bft)
27.02.2016 09:00 -3,3 C -1,0 C 84 % 1004,1 hPa 0,0 mm 0,2 km/h (0 Bft) N 0,00 h -5,5 C 0,3 km/h (0 Bft)
27.02.2016 10:00 -0,7 C 6,4 C 84 % 1004,5 hPa 0,0 mm 0,0 km/h (0 Bft) N 0,67 h -3,0 C 0,2 km/h (0 Bft)
27.02.2016 11:00 2,0 C 10,7 C 80 % 1005,3 hPa 0,7 mm 0,1 km/h (0 Bft) N 1,00 h -1,1 C 0,1 km/h (0 Bft)
27.02.2016 12:00 5,1 C 10,7 C 75 % 1005,5 hPa 1,4 mm 0,5 km/h (0 Bft) O-NO 0,83 h 1,0 C 0,7 km/h (0 Bft)
27.02.2016 13:00 5,6 C 11,6 C 73 % 1005,5 hPa 0,7 mm 5,9 km/h (2 Bft) O-NO 0,67 h 1,1 C 7,9 km/h (2 Bft)
27.02.2016 14:00 5,6 C 10,8 C 72 % 1005,6 hPa 0,0 mm 7,3 km/h (2 Bft) NO 0,50 h 0,9 C 8,5 km/h (2 Bft)
27.02.2016 15:00 5,8 C 11,8 C 72 % 1005,1 hPa 0,0 mm 2,3 km/h (1 Bft) NO 1,00 h 1,1 C 2,3 km/h (1 Bft)
27.02.2016 16:00 3,3 C 4,8 C 75 % 1004,4 hPa 0,0 mm 1,0 km/h (0 Bft) N-NO 0,10 h -0,6 C 1,5 km/h (1 Bft)
27.02.2016 17:00 1,6 C 1,3 C 80 % 1004,2 hPa 0,0 mm 1,0 km/h (0 Bft) S-SO 0,00 h -1,5 C 1,8 km/h (1 Bft)
27.02.2016 18:00 -0,1 C -0,5 C 87 % 1004,4 hPa 0,0 mm 0,8 km/h (0 Bft) S-SO 0,00 h -1,9 C 1,0 km/h (0 Bft)
27.02.2016 19:00 -1,4 C -1,7 C 89 % 1004,7 hPa 0,0 mm 0,0 km/h (0 Bft) N 0,00 h -3,0 C 0,0 km/h (0 Bft)
27.02.2016 20:00 -1,9 C -2,2 C 90 % 1004,6 hPa 0,0 mm 0,2 km/h (0 Bft) N 0,00 h -3,3 C 0,4 km/h (0 Bft)
27.02.2016 21:00 -1,7 C -2,0 C 92 % 1004,7 hPa 0,0 mm 0,6 km/h (0 Bft) S-SO 0,00 h -2,8 C 0,8 km/h (0 Bft)
27.02.2016 22:00 -2,6 C -2,7 C 91 % 1005,0 hPa 0,0 mm 0,2 km/h (0 Bft) N 0,00 h -3,8 C 0,3 km/h (0 Bft)
27.02.2016 23:00 -2,6 C -2,8 C 91 % 1004,9 hPa 0,0 mm 0,1 km/h (0 Bft) N 0,00 h -3,9 C 0,4 km/h (0 Bft)
28.02.2016 00:00 -2,4 C -2,7 C 91 % 1004,7 hPa 0,0 mm 0,2 km/h (0 Bft) N 0,00 h -3,7 C 0,4 km/h (0 Bft)
28.02.2016 01:00 -2,1 C -2,2 C 91 % 1004,7 hPa 0,0 mm 0,4 km/h (0 Bft) O-NO 0,00 h -3,3 C 0,5 km/h (0 Bft)
28.02.2016 02:00 -1,5 C -1,6 C 92 % 1004,5 hPa 0,0 mm 0,7 km/h (0 Bft) W 0,00 h -2,6 C 0,7 km/h (0 Bft)
28.02.2016 03:00 -1,3 C -1,5 C 92 % 1004,1 hPa 0,0 mm 0,2 km/h (0 Bft) NW 0,00 h -2,4 C 0,6 km/h (0 Bft)
28.02.2016 04:00 -1,2 C -1,4 C 92 % 1004,1 hPa 0,0 mm 2,3 km/h (1 Bft) O-NO 0,00 h -2,3 C 3,3 km/h (1 Bft)
28.02.2016 05:00 -1,3 C -1,5 C 93 % 1004,3 hPa 0,0 mm 2,8 km/h (1 Bft) O-NO 0,00 h -2,3 C 3,5 km/h (1 Bft)
28.02.2016 06:00 -1,5 C -1,8 C 93 % 1004,1 hPa 0,0 mm 2,2 km/h (1 Bft) NO 0,00 h -2,6 C 2,6 km/h (1 Bft)
28.02.2016 07:00 -1,8 C -2,0 C 92 % 1004,2 hPa 0,0 mm 0,1 km/h (0 Bft) NO 0,00 h -2,9 C 0,6 km/h (0 Bft)
28.02.2016 08:00 -1,1 C -1,3 C 93 % 1004,6 hPa 0,0 mm 4,0 km/h (1 Bft) O-NO 0,00 h -2,1 C 5,1 km/h (1 Bft)
28.02.2016 09:00 -0,4 C -0,6 C 93 % 1005,0 hPa 0,0 mm 2,9 km/h (1 Bft) O-NO 0,00 h -1,4 C 3,2 km/h (1 Bft)
28.02.2016 10:00 0,0 C 0,7 C 91 % 1005,2 hPa 0,0 mm 3,7 km/h (1 Bft) O-NO 0,00 h -1,2 C 5,8 km/h (2 Bft)
28.02.2016 11:00 1,2 C 3,8 C 86 % 1005,3 hPa 0,0 mm 7,8 km/h (2 Bft) O-NO 0,00 h -0,9 C 8,7 km/h (2 Bft)
28.02.2016 12:00 3,1 C 7,1 C 84 % 1006,3 hPa 0,0 mm 1,4 km/h (1 Bft) O-NO 0,07 h 0,7 C 1,4 km/h (1 Bft)
28.02.2016 13:00 3,7 C 7,5 C 80 % 1006,2 hPa 0,0 mm 5,5 km/h (1 Bft) O-NO 0,07 h 0,5 C 7,5 km/h (2 Bft)
28.02.2016 14:00 3,9 C 7,1 C 78 % 1006,8 hPa 0,0 mm 5,5 km/h (1 Bft) O-NO 0,00 h 0,4 C 5,9 km/h (2 Bft)
28.02.2016 15:00 3,3 C 5,0 C 76 % 1007,3 hPa 0,0 mm 4,2 km/h (1 Bft) N-NO 0,00 h -0,5 C 5,4 km/h (1 Bft)
28.02.2016 16:00 2,9 C 3,5 C 76 % 1007,5 hPa 0,0 mm 4,2 km/h (1 Bft) N-NO 0,00 h -0,9 C 5,2 km/h (1 Bft)
28.02.2016 17:00 2,0 C 1,9 C 77 % 1008,3 hPa 0,0 mm 1,4 km/h (1 Bft) W-NW 0,00 h -1,6 C 1,5 km/h (1 Bft)
28.02.2016 18:00 1,3 C 1,2 C 80 % 1008,7 hPa 0,0 mm 0,6 km/h (0 Bft) S 0,00 h -1,8 C 1,1 km/h (0 Bft)
28.02.2016 19:00 1,1 C 1,0 C 84 % 1009,1 hPa 0,0 mm 0,0 km/h (0 Bft) N 0,00 h -1,3 C 0,0 km/h (0 Bft)
28.02.2016 20:00 1,0 C 0,9 C 85 % 1009,1 hPa 0,0 mm 0,1 km/h (0 Bft) N 0,00 h -1,2 C 0,2 km/h (0 Bft)
28.02.2016 21:00 0,9 C 0,7 C 87 % 1008,9 hPa 0,0 mm 2,0 km/h (1 Bft) O-NO 0,00 h -1,1 C 2,9 km/h (1 Bft)
28.02.2016 22:00 0,4 C 0,0 C 89 % 1008,9 hPa 0,0 mm 5,4 km/h (1 Bft) O-NO 0,00 h -1,3 C 7,4 km/h (2 Bft)
28.02.2016 23:00 -0,0 C -0,6 C 90 % 1008,7 hPa 0,0 mm 6,0 km/h (2 Bft) O-NO 0,00 h -1,5 C 6,7 km/h (2 Bft)
Min-Datum _ 27.02.16 27.02.16 22.02.16 27.02.16 - 28.02.16 - - 27.02.16 28.02.16
_ Min-Zeit 02:34 02:34 15:01 06:09 - 21:02 - - 02:38 23:46
Minimum _ -8,8 C -9,0 C 31 % 1002,9 hPa - 0,0 km/h (0 Bft) - - -10,7 C 0,0 km/h (0 Bft)
Max-Datum _ 22.02.16 22.02.16 28.02.16 24.02.16 26.02.16 23.02.16 - 27.02.16 23.02.16 23.02.16
_ Max-Zeit 13:37 13:00 10:00 12:00 13:03 13:23 - 13:04 00:23 13:03
Maximum _ 16,9 C 19,7 C 93 % 1019,4 hPa 2,1 mm 25,6 km/h
W (4 Bft)
- 0,08 h 3,4 C 61,1 km/h
W (7 Bft)
Durchschnitt _ 1,8 C 2,7 C 76 % 1010,0 hPa #17,9 mm 4,0 km/h (1 Bft) W #13:34 h -2,4 C 5,2 km/h (1 Bft)